Terminal Aerodrome Forecast
Issued by NWS

Home | Current Version | Previous Version | Text Only | Print | Product List | Glossary On
Versions: 1 2 3 4 5 6 7 8 9 10 11 12 13 14 15
000
FTUS43 KICT 180522
TAFSLN
TAF
KSLN 180522Z 1806/1906 15005KT P6SM SCT035 BKN150
     FM180800 13005KT P6SM VCTS SCT020 BKN035CB
     FM181200 14007KT P6SM SCT020 BKN050
     FM181600 16015G24KT P6SM SCT030 BKN050
     FM190100 15006KT P6SM VCTS SCT020 BKN035CB=

USA.gov is the U.S. government's official web portal to all federal, state and local government web resources and services.